sensor_id;sensor_type;location;lat;lon;timestamp;P1;durP1;ratioP1;P2;durP2;ratioP2
12088;SDS011;6107;49.078;8.578;2023-06-26T00:02:17;7.07;;;5.93;;
12088;SDS011;6107;49.078;8.578;2023-06-26T00:04:43;8.23;;;6.10;;
12088;SDS011;6107;49.078;8.578;2023-06-26T00:07:08;8.27;;;6.28;;
12088;SDS011;6107;49.078;8.578;2023-06-26T00:09:34;9.95;;;6.65;;
12088;SDS011;6107;49.078;8.578;2023-06-26T00:12:00;10.68;;;6.25;;
12088;SDS011;6107;49.078;8.578;2023-06-26T00:14:26;8.00;;;5.95;;
12088;SDS011;6107;49.078;8.578;2023-06-26T00:16:52;9.45;;;6.18;;
12088;SDS011;6107;49.078;8.578;2023-06-26T00:19:17;8.43;;;6.05;;
12088;SDS011;6107;49.078;8.578;2023-06-26T00:21:43;9.27;;;6.50;;
12088;SDS011;6107;49.078;8.578;2023-06-26T00:24:11;9.30;;;6.40;;
12088;SDS011;6107;49.078;8.578;2023-06-26T00:26:37;9.30;;;6.75;;
12088;SDS011;6107;49.078;8.578;2023-06-26T00:29:03;8.43;;;6.40;;
12088;SDS011;6107;49.078;8.578;2023-06-26T00:31:28;8.70;;;6.45;;
12088;SDS011;6107;49.078;8.578;2023-06-26T00:33:54;8.57;;;6.53;;
12088;SDS011;6107;49.078;8.578;2023-06-26T00:36:19;9.20;;;6.60;;
12088;SDS011;6107;49.078;8.578;2023-06-26T00:38:47;8.95;;;6.38;;
12088;SDS011;6107;49.078;8.578;2023-06-26T00:41:13;9.40;;;6.53;;
12088;SDS011;6107;49.078;8.578;2023-06-26T00:43:39;10.27;;;6.20;;
12088;SDS011;6107;49.078;8.578;2023-06-26T00:46:05;10.20;;;7.05;;
12088;SDS011;6107;49.078;8.578;2023-06-26T00:48:35;10.88;;;6.50;;
12088;SDS011;6107;49.078;8.578;2023-06-26T00:51:01;9.30;;;6.70;;
12088;SDS011;6107;49.078;8.578;2023-06-26T00:53:27;9.95;;;6.45;;
12088;SDS011;6107;49.078;8.578;2023-06-26T00:55:53;10.00;;;6.82;;
12088;SDS011;6107;49.078;8.578;2023-06-26T00:58:19;9.95;;;6.82;;
12088;SDS011;6107;49.078;8.578;2023-06-26T01:00:48;8.85;;;6.18;;
12088;SDS011;6107;49.078;8.578;2023-06-26T01:03:14;10.68;;;7.05;;
12088;SDS011;6107;49.078;8.578;2023-06-26T01:05:40;9.20;;;6.45;;
12088;SDS011;6107;49.078;8.578;2023-06-26T01:08:06;8.32;;;6.30;;
12088;SDS011;6107;49.078;8.578;2023-06-26T01:10:33;8.55;;;6.13;;
12088;SDS011;6107;49.078;8.578;2023-06-26T01:12:59;9.05;;;7.22;;
12088;SDS011;6107;49.078;8.578;2023-06-26T01:15:24;8.98;;;6.57;;
12088;SDS011;6107;49.078;8.578;2023-06-26T01:17:50;10.82;;;6.50;;
12088;SDS011;6107;49.078;8.578;2023-06-26T01:20:16;11.50;;;7.20;;
12088;SDS011;6107;49.078;8.578;2023-06-26T01:28:40;9.48;;;6.60;;
12088;SDS011;6107;49.078;8.578;2023-06-26T01:31:07;8.43;;;6.07;;
12088;SDS011;6107;49.078;8.578;2023-06-26T01:33:33;10.25;;;6.50;;
12088;SDS011;6107;49.078;8.578;2023-06-26T01:36:00;9.05;;;6.47;;
12088;SDS011;6107;49.078;8.578;2023-06-26T01:38:26;8.48;;;6.45;;
12088;SDS011;6107;49.078;8.578;2023-06-26T01:40:51;7.57;;;6.25;;
12088;SDS011;6107;49.078;8.578;2023-06-26T01:46:22;8.85;;;6.72;;
12088;SDS011;6107;49.078;8.578;2023-06-26T01:48:54;13.57;;;6.57;;
12088;SDS011;6107;49.078;8.578;2023-06-26T01:51:31;9.57;;;6.72;;
12088;SDS011;6107;49.078;8.578;2023-06-26T01:54:00;10.40;;;7.20;;
12088;SDS011;6107;49.078;8.578;2023-06-26T01:56:27;11.35;;;7.07;;
12088;SDS011;6107;49.078;8.578;2023-06-26T01:58:54;9.67;;;7.17;;
12088;SDS011;6107;49.078;8.578;2023-06-26T02:01:20;9.65;;;7.10;;
12088;SDS011;6107;49.078;8.578;2023-06-26T02:03:47;9.23;;;6.70;;
12088;SDS011;6107;49.078;8.578;2023-06-26T02:06:13;11.47;;;6.90;;
12088;SDS011;6107;49.078;8.578;2023-06-26T02:08:38;10.07;;;7.60;;
12088;SDS011;6107;49.078;8.578;2023-06-26T02:11:04;9.68;;;6.90;;
12088;SDS011;6107;49.078;8.578;2023-06-26T02:13:30;9.90;;;6.40;;
12088;SDS011;6107;49.078;8.578;2023-06-26T02:15:55;9.73;;;7.13;;
12088;SDS011;6107;49.078;8.578;2023-06-26T02:18:22;10.30;;;7.17;;
12088;SDS011;6107;49.078;8.578;2023-06-26T02:20:48;11.80;;;7.47;;
12088;SDS011;6107;49.078;8.578;2023-06-26T02:23:13;9.20;;;6.80;;
12088;SDS011;6107;49.078;8.578;2023-06-26T02:25:39;9.77;;;6.93;;
12088;SDS011;6107;49.078;8.578;2023-06-26T02:28:05;10.23;;;7.00;;
12088;SDS011;6107;49.078;8.578;2023-06-26T02:30:30;10.90;;;6.77;;
12088;SDS011;6107;49.078;8.578;2023-06-26T02:32:56;10.53;;;7.13;;
12088;SDS011;6107;49.078;8.578;2023-06-26T02:35:21;10.17;;;7.27;;
12088;SDS011;6107;49.078;8.578;2023-06-26T02:37:47;11.30;;;7.60;;
12088;SDS011;6107;49.078;8.578;2023-06-26T02:40:12;11.13;;;7.43;;
12088;SDS011;6107;49.078;8.578;2023-06-26T02:42:38;11.60;;;7.30;;
12088;SDS011;6107;49.078;8.578;2023-06-26T02:45:04;10.50;;;7.13;;
12088;SDS011;6107;49.078;8.578;2023-06-26T02:47:29;9.90;;;7.50;;
12088;SDS011;6107;49.078;8.578;2023-06-26T02:49:55;9.33;;;6.97;;
12088;SDS011;6107;49.078;8.578;2023-06-26T02:52:20;11.13;;;7.67;;
12088;SDS011;6107;49.078;8.578;2023-06-26T02:54:46;10.43;;;7.27;;
12088;SDS011;6107;49.078;8.578;2023-06-26T02:57:11;9.60;;;6.80;;
12088;SDS011;6107;49.078;8.578;2023-06-26T02:59:39;9.50;;;6.87;;
12088;SDS011;6107;49.078;8.578;2023-06-26T03:02:05;11.90;;;7.50;;
12088;SDS011;6107;49.078;8.578;2023-06-26T03:04:30;10.43;;;7.53;;
12088;SDS011;6107;49.078;8.578;2023-06-26T03:06:56;10.17;;;7.10;;
12088;SDS011;6107;49.078;8.578;2023-06-26T03:09:21;11.87;;;6.93;;
12088;SDS011;6107;49.078;8.578;2023-06-26T03:11:47;11.10;;;7.37;;
12088;SDS011;6107;49.078;8.578;2023-06-26T03:14:13;12.50;;;7.33;;
12088;SDS011;6107;49.078;8.578;2023-06-26T03:16:39;9.40;;;6.73;;
12088;SDS011;6107;49.078;8.578;2023-06-26T03:19:05;10.13;;;7.37;;
12088;SDS011;6107;49.078;8.578;2023-06-26T03:21:30;11.03;;;7.27;;
12088;SDS011;6107;49.078;8.578;2023-06-26T03:23:57;10.27;;;7.00;;
12088;SDS011;6107;49.078;8.578;2023-06-26T03:26:22;10.43;;;7.40;;
12088;SDS011;6107;49.078;8.578;2023-06-26T03:28:52;10.50;;;7.40;;
12088;SDS011;6107;49.078;8.578;2023-06-26T03:31:18;9.77;;;6.70;;
12088;SDS011;6107;49.078;8.578;2023-06-26T03:33:44;9.50;;;7.50;;
12088;SDS011;6107;49.078;8.578;2023-06-26T03:36:10;10.83;;;7.63;;
12088;SDS011;6107;49.078;8.578;2023-06-26T03:38:36;10.37;;;7.17;;
12088;SDS011;6107;49.078;8.578;2023-06-26T03:41:01;10.33;;;7.10;;
12088;SDS011;6107;49.078;8.578;2023-06-26T03:43:27;11.20;;;7.83;;
12088;SDS011;6107;49.078;8.578;2023-06-26T03:45:53;10.70;;;7.43;;
12088;SDS011;6107;49.078;8.578;2023-06-26T03:48:18;11.90;;;7.43;;
12088;SDS011;6107;49.078;8.578;2023-06-26T03:50:44;10.63;;;8.03;;
12088;SDS011;6107;49.078;8.578;2023-06-26T03:53:10;13.73;;;7.53;;
12088;SDS011;6107;49.078;8.578;2023-06-26T03:55:37;11.03;;;7.33;;
12088;SDS011;6107;49.078;8.578;2023-06-26T03:58:03;10.57;;;7.43;;
12088;SDS011;6107;49.078;8.578;2023-06-26T04:00:29;10.80;;;7.13;;
12088;SDS011;6107;49.078;8.578;2023-06-26T04:02:55;10.93;;;7.77;;
12088;SDS011;6107;49.078;8.578;2023-06-26T04:05:22;9.77;;;7.40;;
12088;SDS011;6107;49.078;8.578;2023-06-26T04:07:51;11.37;;;7.63;;
12088;SDS011;6107;49.078;8.578;2023-06-26T04:10:17;10.37;;;6.73;;
12088;SDS011;6107;49.078;8.578;2023-06-26T04:12:42;11.43;;;7.33;;
12088;SDS011;6107;49.078;8.578;2023-06-26T04:15:08;9.17;;;7.07;;
12088;SDS011;6107;49.078;8.578;2023-06-26T04:17:34;10.50;;;7.43;;
12088;SDS011;6107;49.078;8.578;2023-06-26T04:19:59;8.90;;;6.90;;
12088;SDS011;6107;49.078;8.578;2023-06-26T04:22:25;9.23;;;7.40;;
12088;SDS011;6107;49.078;8.578;2023-06-26T04:24:50;11.40;;;7.23;;
12088;SDS011;6107;49.078;8.578;2023-06-26T04:27:17;9.40;;;6.90;;
12088;SDS011;6107;49.078;8.578;2023-06-26T04:29:43;11.30;;;7.40;;
12088;SDS011;6107;49.078;8.578;2023-06-26T04:32:08;10.40;;;7.43;;
12088;SDS011;6107;49.078;8.578;2023-06-26T04:34:34;12.10;;;8.20;;
12088;SDS011;6107;49.078;8.578;2023-06-26T04:37:01;13.13;;;7.30;;
12088;SDS011;6107;49.078;8.578;2023-06-26T04:39:28;9.97;;;7.13;;
12088;SDS011;6107;49.078;8.578;2023-06-26T04:44:26;13.57;;;7.87;;
12088;SDS011;6107;49.078;8.578;2023-06-26T04:46:52;11.37;;;7.17;;
12088;SDS011;6107;49.078;8.578;2023-06-26T04:49:17;11.67;;;8.07;;
12088;SDS011;6107;49.078;8.578;2023-06-26T04:51:43;9.93;;;7.30;;
12088;SDS011;6107;49.078;8.578;2023-06-26T04:54:12;11.02;;;8.05;;
12088;SDS011;6107;49.078;8.578;2023-06-26T04:56:37;13.47;;;8.40;;
12088;SDS011;6107;49.078;8.578;2023-06-26T04:59:05;10.32;;;7.70;;
12088;SDS011;6107;49.078;8.578;2023-06-26T05:01:30;12.43;;;7.30;;
12088;SDS011;6107;49.078;8.578;2023-06-26T05:03:57;10.70;;;7.72;;
12088;SDS011;6107;49.078;8.578;2023-06-26T05:06:23;12.10;;;7.43;;
12088;SDS011;6107;49.078;8.578;2023-06-26T05:08:48;11.80;;;7.07;;
12088;SDS011;6107;49.078;8.578;2023-06-26T05:11:14;10.32;;;7.50;;
12088;SDS011;6107;49.078;8.578;2023-06-26T05:13:40;11.55;;;7.18;;
12088;SDS011;6107;49.078;8.578;2023-06-26T05:16:06;13.65;;;7.93;;
12088;SDS011;6107;49.078;8.578;2023-06-26T05:18:34;9.48;;;6.97;;
12088;SDS011;6107;49.078;8.578;2023-06-26T05:21:00;11.93;;;7.40;;
12088;SDS011;6107;49.078;8.578;2023-06-26T05:23:25;12.57;;;7.07;;
12088;SDS011;6107;49.078;8.578;2023-06-26T05:25:52;9.18;;;6.75;;
12088;SDS011;6107;49.078;8.578;2023-06-26T05:28:18;9.80;;;6.63;;
12088;SDS011;6107;49.078;8.578;2023-06-26T05:30:45;9.88;;;7.13;;
12088;SDS011;6107;49.078;8.578;2023-06-26T05:33:11;10.95;;;7.45;;
12088;SDS011;6107;49.078;8.578;2023-06-26T05:35:38;8.52;;;6.40;;
12088;SDS011;6107;49.078;8.578;2023-06-26T05:38:04;11.07;;;7.70;;
12088;SDS011;6107;49.078;8.578;2023-06-26T05:40:31;11.10;;;7.15;;
12088;SDS011;6107;49.078;8.578;2023-06-26T05:42:59;9.32;;;7.68;;
12088;SDS011;6107;49.078;8.578;2023-06-26T05:45:25;10.75;;;7.10;;
12088;SDS011;6107;49.078;8.578;2023-06-26T05:47:51;11.00;;;8.23;;
12088;SDS011;6107;49.078;8.578;2023-06-26T05:50:17;10.20;;;7.35;;
12088;SDS011;6107;49.078;8.578;2023-06-26T05:52:43;11.25;;;7.25;;
12088;SDS011;6107;49.078;8.578;2023-06-26T05:55:09;11.55;;;7.85;;
12088;SDS011;6107;49.078;8.578;2023-06-26T05:57:36;9.90;;;7.72;;
12088;SDS011;6107;49.078;8.578;2023-06-26T06:00:03;10.43;;;7.30;;
12088;SDS011;6107;49.078;8.578;2023-06-26T06:02:31;10.85;;;7.90;;
12088;SDS011;6107;49.078;8.578;2023-06-26T06:04:57;8.95;;;7.20;;
12088;SDS011;6107;49.078;8.578;2023-06-26T06:07:24;10.18;;;7.90;;
12088;SDS011;6107;49.078;8.578;2023-06-26T06:09:50;11.70;;;8.00;;
12088;SDS011;6107;49.078;8.578;2023-06-26T06:12:16;8.80;;;7.30;;
12088;SDS011;6107;49.078;8.578;2023-06-26T06:14:42;10.68;;;7.65;;
12088;SDS011;6107;49.078;8.578;2023-06-26T06:17:08;8.77;;;7.47;;
12088;SDS011;6107;49.078;8.578;2023-06-26T06:19:34;10.10;;;7.50;;
12088;SDS011;6107;49.078;8.578;2023-06-26T06:21:59;9.45;;;7.40;;
12088;SDS011;6107;49.078;8.578;2023-06-26T06:24:25;10.60;;;7.47;;
12088;SDS011;6107;49.078;8.578;2023-06-26T06:26:51;9.50;;;7.15;;
12088;SDS011;6107;49.078;8.578;2023-06-26T06:29:17;8.48;;;7.15;;
12088;SDS011;6107;49.078;8.578;2023-06-26T06:31:44;8.88;;;7.10;;
12088;SDS011;6107;49.078;8.578;2023-06-26T06:34:11;8.45;;;7.30;;
12088;SDS011;6107;49.078;8.578;2023-06-26T06:36:38;9.48;;;7.35;;
12088;SDS011;6107;49.078;8.578;2023-06-26T06:39:04;8.77;;;7.10;;
12088;SDS011;6107;49.078;8.578;2023-06-26T06:41:29;9.50;;;7.25;;
12088;SDS011;6107;49.078;8.578;2023-06-26T06:43:55;10.52;;;7.05;;
12088;SDS011;6107;49.078;8.578;2023-06-26T06:46:21;8.70;;;7.10;;
12088;SDS011;6107;49.078;8.578;2023-06-26T06:48:47;9.95;;;7.47;;
12088;SDS011;6107;49.078;8.578;2023-06-26T06:51:13;10.15;;;7.22;;
12088;SDS011;6107;49.078;8.578;2023-06-26T06:53:39;9.20;;;6.90;;
12088;SDS011;6107;49.078;8.578;2023-06-26T06:56:05;9.25;;;6.80;;
12088;SDS011;6107;49.078;8.578;2023-06-26T06:58:31;9.98;;;7.15;;
12088;SDS011;6107;49.078;8.578;2023-06-26T07:00:58;8.65;;;6.80;;
12088;SDS011;6107;49.078;8.578;2023-06-26T07:03:24;9.70;;;7.15;;
12088;SDS011;6107;49.078;8.578;2023-06-26T07:05:50;9.88;;;7.20;;
12088;SDS011;6107;49.078;8.578;2023-06-26T07:08:16;8.98;;;6.70;;
12088;SDS011;6107;49.078;8.578;2023-06-26T07:10:42;10.13;;;7.20;;
12088;SDS011;6107;49.078;8.578;2023-06-26T07:13:08;9.93;;;6.72;;
12088;SDS011;6107;49.078;8.578;2023-06-26T07:15:33;8.85;;;7.00;;
12088;SDS011;6107;49.078;8.578;2023-06-26T07:17:59;7.80;;;6.40;;
12088;SDS011;6107;49.078;8.578;2023-06-26T07:20:24;10.73;;;7.38;;
12088;SDS011;6107;49.078;8.578;2023-06-26T07:22:50;9.23;;;7.00;;
12088;SDS011;6107;49.078;8.578;2023-06-26T07:25:15;10.13;;;6.82;;
12088;SDS011;6107;49.078;8.578;2023-06-26T07:27:41;7.82;;;6.57;;
12088;SDS011;6107;49.078;8.578;2023-06-26T07:30:07;7.80;;;6.68;;
12088;SDS011;6107;49.078;8.578;2023-06-26T07:32:36;9.65;;;6.97;;
12088;SDS011;6107;49.078;8.578;2023-06-26T07:35:02;9.68;;;6.63;;
12088;SDS011;6107;49.078;8.578;2023-06-26T07:37:28;8.50;;;6.68;;
12088;SDS011;6107;49.078;8.578;2023-06-26T07:39:53;8.85;;;6.97;;
12088;SDS011;6107;49.078;8.578;2023-06-26T07:42:19;8.98;;;7.05;;
12088;SDS011;6107;49.078;8.578;2023-06-26T07:44:46;10.98;;;7.25;;
12088;SDS011;6107;49.078;8.578;2023-06-26T07:47:12;8.48;;;7.00;;
12088;SDS011;6107;49.078;8.578;2023-06-26T07:49:39;7.93;;;6.90;;
12088;SDS011;6107;49.078;8.578;2023-06-26T07:52:05;8.98;;;6.55;;
12088;SDS011;6107;49.078;8.578;2023-06-26T07:54:31;8.10;;;6.70;;
12088;SDS011;6107;49.078;8.578;2023-06-26T07:57:01;9.73;;;6.93;;
12088;SDS011;6107;49.078;8.578;2023-06-26T07:59:28;10.18;;;6.80;;
12088;SDS011;6107;49.078;8.578;2023-06-26T08:01:54;9.43;;;6.88;;
12088;SDS011;6107;49.078;8.578;2023-06-26T08:04:21;7.68;;;6.60;;
12088;SDS011;6107;49.078;8.578;2023-06-26T08:06:48;7.40;;;6.57;;
12088;SDS011;6107;49.078;8.578;2023-06-26T08:09:14;7.45;;;6.05;;
12088;SDS011;6107;49.078;8.578;2023-06-26T08:11:40;8.50;;;6.82;;
12088;SDS011;6107;49.078;8.578;2023-06-26T08:14:06;8.98;;;6.47;;
12088;SDS011;6107;49.078;8.578;2023-06-26T08:16:32;6.68;;;5.97;;
12088;SDS011;6107;49.078;8.578;2023-06-26T08:18:58;10.63;;;6.45;;
12088;SDS011;6107;49.078;8.578;2023-06-26T08:21:23;7.63;;;6.22;;
12088;SDS011;6107;49.078;8.578;2023-06-26T08:23:49;6.93;;;5.95;;
12088;SDS011;6107;49.078;8.578;2023-06-26T08:26:15;7.40;;;6.43;;
12088;SDS011;6107;49.078;8.578;2023-06-26T08:28:41;8.55;;;6.20;;
12088;SDS011;6107;49.078;8.578;2023-06-26T08:31:07;7.50;;;6.20;;
12088;SDS011;6107;49.078;8.578;2023-06-26T08:33:33;8.88;;;6.32;;
12088;SDS011;6107;49.078;8.578;2023-06-26T08:35:59;9.48;;;6.32;;
12088;SDS011;6107;49.078;8.578;2023-06-26T08:38:25;7.47;;;6.50;;
12088;SDS011;6107;49.078;8.578;2023-06-26T08:40:51;6.40;;;5.75;;
12088;SDS011;6107;49.078;8.578;2023-06-26T08:43:17;8.43;;;6.75;;
12088;SDS011;6107;49.078;8.578;2023-06-26T08:45:44;9.98;;;6.72;;
12088;SDS011;6107;49.078;8.578;2023-06-26T08:48:11;9.68;;;6.53;;
12088;SDS011;6107;49.078;8.578;2023-06-26T08:50:38;13.23;;;7.15;;
12088;SDS011;6107;49.078;8.578;2023-06-26T08:53:04;8.15;;;6.43;;
12088;SDS011;6107;49.078;8.578;2023-06-26T08:55:38;9.05;;;6.80;;
12088;SDS011;6107;49.078;8.578;2023-06-26T08:58:04;8.57;;;7.40;;
12088;SDS011;6107;49.078;8.578;2023-06-26T09:00:30;10.15;;;7.53;;
12088;SDS011;6107;49.078;8.578;2023-06-26T09:02:56;8.68;;;6.75;;
12088;SDS011;6107;49.078;8.578;2023-06-26T09:05:22;7.95;;;7.15;;
12088;SDS011;6107;49.078;8.578;2023-06-26T09:07:48;11.00;;;6.63;;
12088;SDS011;6107;49.078;8.578;2023-06-26T09:10:14;7.47;;;6.13;;
12088;SDS011;6107;49.078;8.578;2023-06-26T09:12:40;10.02;;;7.30;;
12088;SDS011;6107;49.078;8.578;2023-06-26T09:15:06;9.00;;;7.38;;
12088;SDS011;6107;49.078;8.578;2023-06-26T09:17:33;8.68;;;7.30;;
12088;SDS011;6107;49.078;8.578;2023-06-26T09:19:59;12.23;;;7.22;;
12088;SDS011;6107;49.078;8.578;2023-06-26T09:22:25;7.63;;;6.82;;
12088;SDS011;6107;49.078;8.578;2023-06-26T09:24:52;8.38;;;7.15;;
12088;SDS011;6107;49.078;8.578;2023-06-26T09:27:18;10.05;;;7.18;;
12088;SDS011;6107;49.078;8.578;2023-06-26T09:29:47;8.48;;;7.57;;
12088;SDS011;6107;49.078;8.578;2023-06-26T09:32:14;8.38;;;7.03;;
12088;SDS011;6107;49.078;8.578;2023-06-26T09:34:41;8.07;;;6.82;;
12088;SDS011;6107;49.078;8.578;2023-06-26T09:37:07;7.22;;;6.50;;
12088;SDS011;6107;49.078;8.578;2023-06-26T09:39:33;10.07;;;6.70;;
12088;SDS011;6107;49.078;8.578;2023-06-26T09:41:59;8.13;;;7.28;;
12088;SDS011;6107;49.078;8.578;2023-06-26T09:44:26;8.52;;;6.97;;
12088;SDS011;6107;49.078;8.578;2023-06-26T09:46:54;7.65;;;6.63;;
12088;SDS011;6107;49.078;8.578;2023-06-26T09:49:20;7.88;;;6.60;;
12088;SDS011;6107;49.078;8.578;2023-06-26T09:51:46;8.07;;;6.82;;
12088;SDS011;6107;49.078;8.578;2023-06-26T09:54:15;11.10;;;7.05;;
12088;SDS011;6107;49.078;8.578;2023-06-26T09:56:42;10.25;;;6.72;;
12088;SDS011;6107;49.078;8.578;2023-06-26T09:59:08;7.35;;;6.55;;
12088;SDS011;6107;49.078;8.578;2023-06-26T10:01:36;7.25;;;6.50;;
12088;SDS011;6107;49.078;8.578;2023-06-26T10:04:02;7.45;;;6.70;;
12088;SDS011;6107;49.078;8.578;2023-06-26T10:06:31;9.15;;;6.90;;
12088;SDS011;6107;49.078;8.578;2023-06-26T10:08:58;9.50;;;6.78;;
12088;SDS011;6107;49.078;8.578;2023-06-26T10:11:25;8.15;;;6.50;;
12088;SDS011;6107;49.078;8.578;2023-06-26T10:13:54;10.15;;;7.00;;
12088;SDS011;6107;49.078;8.578;2023-06-26T10:16:23;8.75;;;6.45;;
12088;SDS011;6107;49.078;8.578;2023-06-26T10:18:55;9.48;;;6.88;;
12088;SDS011;6107;49.078;8.578;2023-06-26T10:21:22;9.73;;;6.75;;
12088;SDS011;6107;49.078;8.578;2023-06-26T10:23:49;8.65;;;7.30;;
12088;SDS011;6107;49.078;8.578;2023-06-26T10:26:16;8.20;;;6.90;;
12088;SDS011;6107;49.078;8.578;2023-06-26T10:28:46;7.68;;;6.90;;
12088;SDS011;6107;49.078;8.578;2023-06-26T10:31:14;8.10;;;7.15;;
12088;SDS011;6107;49.078;8.578;2023-06-26T10:33:41;7.68;;;6.72;;
12088;SDS011;6107;49.078;8.578;2023-06-26T10:36:14;8.18;;;6.93;;
12088;SDS011;6107;49.078;8.578;2023-06-26T10:38:47;9.07;;;7.07;;
12088;SDS011;6107;49.078;8.578;2023-06-26T10:41:14;7.38;;;6.68;;
12088;SDS011;6107;49.078;8.578;2023-06-26T10:43:40;10.18;;;6.93;;
12088;SDS011;6107;49.078;8.578;2023-06-26T10:46:09;7.75;;;6.95;;
12088;SDS011;6107;49.078;8.578;2023-06-26T10:48:49;7.85;;;6.80;;
12088;SDS011;6107;49.078;8.578;2023-06-26T10:51:21;9.70;;;6.90;;
12088;SDS011;6107;49.078;8.578;2023-06-26T10:53:50;9.32;;;6.90;;
12088;SDS011;6107;49.078;8.578;2023-06-26T10:56:19;8.65;;;7.03;;
12088;SDS011;6107;49.078;8.578;2023-06-26T10:58:44;9.05;;;7.15;;
12088;SDS011;6107;49.078;8.578;2023-06-26T11:03:39;10.55;;;6.82;;
12088;SDS011;6107;49.078;8.578;2023-06-26T11:06:11;8.48;;;6.40;;
12088;SDS011;6107;49.078;8.578;2023-06-26T11:11:22;7.53;;;6.63;;
12088;SDS011;6107;49.078;8.578;2023-06-26T11:14:08;6.85;;;6.15;;
12088;SDS011;6107;49.078;8.578;2023-06-26T11:16:34;8.95;;;6.60;;
12088;SDS011;6107;49.078;8.578;2023-06-26T11:19:00;7.90;;;6.88;;
12088;SDS011;6107;49.078;8.578;2023-06-26T11:21:26;9.40;;;6.50;;
12088;SDS011;6107;49.078;8.578;2023-06-26T11:23:52;7.85;;;6.70;;
12088;SDS011;6107;49.078;8.578;2023-06-26T11:26:23;8.90;;;6.90;;
12088;SDS011;6107;49.078;8.578;2023-06-26T11:28:49;8.27;;;6.70;;
12088;SDS011;6107;49.078;8.578;2023-06-26T11:31:25;12.32;;;6.95;;
12088;SDS011;6107;49.078;8.578;2023-06-26T11:33:52;10.10;;;6.75;;
12088;SDS011;6107;49.078;8.578;2023-06-26T11:36:18;9.05;;;6.55;;
12088;SDS011;6107;49.078;8.578;2023-06-26T11:38:44;7.88;;;6.38;;
12088;SDS011;6107;49.078;8.578;2023-06-26T11:41:16;8.07;;;6.07;;
12088;SDS011;6107;49.078;8.578;2023-06-26T11:43:42;8.85;;;6.68;;
12088;SDS011;6107;49.078;8.578;2023-06-26T11:46:07;7.82;;;6.60;;
12088;SDS011;6107;49.078;8.578;2023-06-26T11:48:33;10.77;;;7.18;;
12088;SDS011;6107;49.078;8.578;2023-06-26T11:51:00;8.73;;;6.70;;
12088;SDS011;6107;49.078;8.578;2023-06-26T11:53:26;10.48;;;6.55;;
12088;SDS011;6107;49.078;8.578;2023-06-26T11:55:52;8.27;;;6.22;;
12088;SDS011;6107;49.078;8.578;2023-06-26T11:58:17;8.45;;;6.53;;
12088;SDS011;6107;49.078;8.578;2023-06-26T12:00:43;8.80;;;6.13;;
12088;SDS011;6107;49.078;8.578;2023-06-26T12:03:10;10.00;;;6.13;;
12088;SDS011;6107;49.078;8.578;2023-06-26T12:05:36;8.95;;;5.68;;
12088;SDS011;6107;49.078;8.578;2023-06-26T12:08:02;7.10;;;5.20;;
12088;SDS011;6107;49.078;8.578;2023-06-26T12:10:31;8.23;;;6.03;;
12088;SDS011;6107;49.078;8.578;2023-06-26T12:12:57;8.85;;;5.85;;
12088;SDS011;6107;49.078;8.578;2023-06-26T12:15:26;8.10;;;5.82;;
12088;SDS011;6107;49.078;8.578;2023-06-26T12:17:52;7.55;;;5.65;;
12088;SDS011;6107;49.078;8.578;2023-06-26T12:20:18;7.07;;;5.28;;
12088;SDS011;6107;49.078;8.578;2023-06-26T12:22:48;6.05;;;5.45;;
12088;SDS011;6107;49.078;8.578;2023-06-26T12:25:14;7.35;;;5.45;;
12088;SDS011;6107;49.078;8.578;2023-06-26T12:27:40;6.43;;;5.35;;
12088;SDS011;6107;49.078;8.578;2023-06-26T12:30:06;7.28;;;5.45;;
12088;SDS011;6107;49.078;8.578;2023-06-26T12:32:32;7.05;;;4.85;;
12088;SDS011;6107;49.078;8.578;2023-06-26T12:35:01;7.28;;;5.28;;
12088;SDS011;6107;49.078;8.578;2023-06-26T12:37:27;7.72;;;4.55;;
12088;SDS011;6107;49.078;8.578;2023-06-26T12:39:54;6.38;;;4.60;;
12088;SDS011;6107;49.078;8.578;2023-06-26T12:42:21;5.82;;;4.32;;
12088;SDS011;6107;49.078;8.578;2023-06-26T12:44:48;6.43;;;4.22;;
12088;SDS011;6107;49.078;8.578;2023-06-26T12:47:14;4.93;;;4.10;;
12088;SDS011;6107;49.078;8.578;2023-06-26T12:49:41;5.53;;;3.95;;
12088;SDS011;6107;49.078;8.578;2023-06-26T12:52:09;5.97;;;4.20;;
12088;SDS011;6107;49.078;8.578;2023-06-26T12:54:36;5.95;;;4.22;;
12088;SDS011;6107;49.078;8.578;2023-06-26T12:57:03;5.25;;;4.32;;
12088;SDS011;6107;49.078;8.578;2023-06-26T12:59:29;8.93;;;3.85;;
12088;SDS011;6107;49.078;8.578;2023-06-26T13:01:56;7.50;;;3.90;;
12088;SDS011;6107;49.078;8.578;2023-06-26T13:04:22;7.18;;;4.10;;
12088;SDS011;6107;49.078;8.578;2023-06-26T13:06:47;5.43;;;4.00;;
12088;SDS011;6107;49.078;8.578;2023-06-26T13:09:13;6.22;;;3.83;;
12088;SDS011;6107;49.078;8.578;2023-06-26T13:11:39;5.00;;;3.92;;
12088;SDS011;6107;49.078;8.578;2023-06-26T13:14:05;6.07;;;3.55;;
12088;SDS011;6107;49.078;8.578;2023-06-26T13:16:31;3.92;;;3.53;;
12088;SDS011;6107;49.078;8.578;2023-06-26T13:18:58;4.90;;;3.90;;
12088;SDS011;6107;49.078;8.578;2023-06-26T13:21:24;5.65;;;4.20;;
12088;SDS011;6107;49.078;8.578;2023-06-26T13:23:50;6.25;;;4.07;;
12088;SDS011;6107;49.078;8.578;2023-06-26T13:26:16;5.95;;;4.15;;
12088;SDS011;6107;49.078;8.578;2023-06-26T13:28:42;6.57;;;4.10;;
12088;SDS011;6107;49.078;8.578;2023-06-26T13:31:08;5.43;;;4.05;;
12088;SDS011;6107;49.078;8.578;2023-06-26T13:33:34;5.90;;;3.40;;
12088;SDS011;6107;49.078;8.578;2023-06-26T13:36:00;8.95;;;4.13;;
12088;SDS011;6107;49.078;8.578;2023-06-26T13:38:29;5.07;;;3.95;;
12088;SDS011;6107;49.078;8.578;2023-06-26T13:40:55;7.40;;;4.03;;
12088;SDS011;6107;49.078;8.578;2023-06-26T13:43:25;4.97;;;3.75;;
12088;SDS011;6107;49.078;8.578;2023-06-26T13:45:52;11.25;;;4.30;;
12088;SDS011;6107;49.078;8.578;2023-06-26T13:48:18;8.60;;;4.82;;
12088;SDS011;6107;49.078;8.578;2023-06-26T13:50:44;9.75;;;5.07;;
12088;SDS011;6107;49.078;8.578;2023-06-26T13:53:10;8.60;;;5.47;;
12088;SDS011;6107;49.078;8.578;2023-06-26T13:55:36;9.10;;;5.60;;
12088;SDS011;6107;49.078;8.578;2023-06-26T13:58:03;8.13;;;5.80;;
12088;SDS011;6107;49.078;8.578;2023-06-26T14:00:30;6.00;;;5.30;;
12088;SDS011;6107;49.078;8.578;2023-06-26T14:02:58;8.13;;;5.70;;
12088;SDS011;6107;49.078;8.578;2023-06-26T14:05:24;6.90;;;5.43;;
12088;SDS011;6107;49.078;8.578;2023-06-26T14:07:50;9.23;;;5.88;;
12088;SDS011;6107;49.078;8.578;2023-06-26T14:10:16;9.85;;;5.93;;
12088;SDS011;6107;49.078;8.578;2023-06-26T14:12:42;8.15;;;6.43;;
12088;SDS011;6107;49.078;8.578;2023-06-26T14:15:08;8.55;;;6.30;;
12088;SDS011;6107;49.078;8.578;2023-06-26T14:17:34;9.95;;;6.25;;
12088;SDS011;6107;49.078;8.578;2023-06-26T14:20:00;10.35;;;7.07;;
12088;SDS011;6107;49.078;8.578;2023-06-26T14:22:26;8.48;;;6.68;;
12088;SDS011;6107;49.078;8.578;2023-06-26T14:24:52;8.85;;;6.80;;
12088;SDS011;6107;49.078;8.578;2023-06-26T14:27:18;11.68;;;7.32;;
12088;SDS011;6107;49.078;8.578;2023-06-26T14:29:44;11.30;;;7.28;;
12088;SDS011;6107;49.078;8.578;2023-06-26T14:32:10;10.88;;;7.10;;
12088;SDS011;6107;49.078;8.578;2023-06-26T14:34:36;11.23;;;7.22;;
12088;SDS011;6107;49.078;8.578;2023-06-26T14:37:02;10.65;;;7.13;;
12088;SDS011;6107;49.078;8.578;2023-06-26T14:39:28;10.02;;;7.35;;
12088;SDS011;6107;49.078;8.578;2023-06-26T14:41:54;9.57;;;7.35;;
12088;SDS011;6107;49.078;8.578;2023-06-26T14:44:20;11.40;;;6.93;;
12088;SDS011;6107;49.078;8.578;2023-06-26T14:46:46;8.98;;;6.78;;
12088;SDS011;6107;49.078;8.578;2023-06-26T14:49:12;9.40;;;6.10;;
12088;SDS011;6107;49.078;8.578;2023-06-26T14:51:38;7.13;;;5.50;;
12088;SDS011;6107;49.078;8.578;2023-06-26T14:54:05;8.63;;;5.60;;
12088;SDS011;6107;49.078;8.578;2023-06-26T14:56:31;5.43;;;3.85;;
12088;SDS011;6107;49.078;8.578;2023-06-26T14:58:57;5.75;;;3.50;;
12088;SDS011;6107;49.078;8.578;2023-06-26T15:01:23;4.85;;;3.15;;
12088;SDS011;6107;49.078;8.578;2023-06-26T15:03:49;9.20;;;3.60;;
12088;SDS011;6107;49.078;8.578;2023-06-26T15:06:15;5.05;;;2.75;;
12088;SDS011;6107;49.078;8.578;2023-06-26T15:08:41;6.75;;;2.78;;
12088;SDS011;6107;49.078;8.578;2023-06-26T15:11:07;5.78;;;3.10;;